Time;durP1;ratioP1;P1;durP2;ratioP2;P2;SDS_P1;SDS_P2;PMS_P1;PMS_P2;Temp;Humidity;BMP_temperature;BMP_pressure;BME280_temperature;BME280_humidity;BME280_pressure;Samples;Min_cycle;Max_cycle;Signal;HPM_P1;HPM_P2
2022/10/30 00:00:00;;;;;;;18.27;11.35;;;13.80;99.90;;;;;;5049762;28;20029;-53
2022/10/30 00:02:25;;;;;;;21.60;11.93;;;13.80;99.90;;;;;;5051148;28;20029;-52
2022/10/30 00:04:51;;;;;;;20.98;11.50;;;13.80;99.90;;;;;;5051128;28;20401;-51
2022/10/30 00:07:16;;;;;;;19.75;11.52;;;13.70;99.90;;;;;;5051388;28;20304;-50
2022/10/30 00:09:42;;;;;;;26.25;12.60;;;13.70;99.90;;;;;;5050990;28;20028;-47
2022/10/30 00:12:07;;;;;;;18.70;11.45;;;13.70;99.90;;;;;;5050390;28;20068;-52
2022/10/30 00:14:33;;;;;;;20.38;11.80;;;13.70;99.90;;;;;;5051244;28;20021;-51
2022/10/30 00:16:58;;;;;;;21.27;10.35;;;13.60;99.90;;;;;;5050752;28;20021;-52
2022/10/30 00:19:24;;;;;;;104.60;67.43;;;13.70;99.90;;;;;;5050525;28;20057;-50
2022/10/30 00:21:49;;;;;;;38.20;21.80;;;13.60;99.90;;;;;;5053062;28;20029;-52
2022/10/30 00:24:15;;;;;;;28.58;12.95;;;13.60;99.90;;;;;;5054560;28;20040;-53
2022/10/30 00:26:42;;;;;;;25.88;12.07;;;13.60;99.90;;;;;;5054476;28;20049;-49
2022/10/30 00:29:08;;;;;;;19.98;10.70;;;13.60;99.90;;;;;;5054501;28;20439;-49
2022/10/30 00:31:33;;;;;;;26.77;10.98;;;13.70;99.90;;;;;;5054462;28;20017;-50
2022/10/30 00:33:59;;;;;;;17.00;10.52;;;13.70;99.90;;;;;;5054278;28;20071;-53
2022/10/30 00:36:24;;;;;;;17.55;9.68;;;13.60;99.90;;;;;;5054408;28;20025;-52
2022/10/30 00:38:50;;;;;;;17.35;9.90;;;13.60;99.90;;;;;;5053592;28;20020;-52
2022/10/30 00:41:18;;;;;;;18.17;10.68;;;13.60;99.90;;;;;;5069418;28;20029;-51
2022/10/30 00:43:44;;;;;;;16.85;9.57;;;13.60;99.90;;;;;;5053822;28;20505;-50
2022/10/30 00:46:31;;;;;;;17.10;9.65;;;13.50;99.90;;;;;;5054207;28;20132;-53
2022/10/30 00:49:09;;;;;;;20.40;9.90;;;13.50;99.90;;;;;;5054094;28;20021;-51
2022/10/30 00:51:38;;;;;;;19.85;9.68;;;13.50;99.90;;;;;;5053745;28;20029;-49
2022/10/30 00:54:05;;;;;;;15.60;9.15;;;13.50;99.90;;;;;;5052426;28;20143;-51
2022/10/30 00:56:31;;;;;;;16.10;9.43;;;13.40;99.90;;;;;;5053944;28;20032;-50
2022/10/30 00:59:05;;;;;;;18.08;9.38;;;13.40;99.90;;;;;;5053828;28;20025;-53
2022/10/30 01:01:34;;;;;;;16.83;9.20;;;13.40;99.90;;;;;;5053422;28;20078;-49
2022/10/30 01:04:02;;;;;;;27.13;10.35;;;13.40;99.90;;;;;;5053455;28;20437;-50
2022/10/30 01:06:31;;;;;;;24.95;10.80;;;13.40;99.90;;;;;;5053875;28;20044;-50
2022/10/30 01:08:56;;;;;;;20.83;9.75;;;13.60;99.90;;;;;;5053679;28;20017;-50
2022/10/30 01:11:22;;;;;;;22.70;10.50;;;13.50;99.90;;;;;;5053549;28;20082;-51
2022/10/30 01:13:51;;;;;;;21.00;9.02;;;13.60;99.90;;;;;;5053213;28;20025;-51
2022/10/30 01:16:53;;;;;;;17.65;8.77;;;13.60;99.90;;;;;;5053336;28;20028;-52
2022/10/30 01:19:41;;;;;;;17.23;8.45;;;13.50;99.90;;;;;;5053420;28;20108;-50
2022/10/30 01:22:38;;;;;;;17.88;8.73;;;13.40;99.90;;;;;;5052021;28;20311;-51
2022/10/30 01:25:40;;;;;;;24.55;9.40;;;13.40;99.90;;;;;;5052173;28;20040;-51
2022/10/30 01:28:32;;;;;;;27.67;9.90;;;13.30;99.90;;;;;;5053387;28;20017;-52
2022/10/30 01:31:26;;;;;;;19.45;9.52;;;13.30;99.90;;;;;;5047301;28;20037;-52
2022/10/30 01:34:12;;;;;;;20.50;10.50;;;13.30;99.90;;;;;;5053017;28;20087;-53
2022/10/30 01:36:47;;;;;;;17.05;9.45;;;13.30;99.90;;;;;;5053887;28;20029;-53
2022/10/30 01:39:14;;;;;;;;;;;13.30;99.90;;;;;;5053304;28;20039;-51
2022/10/30 01:41:40;;;;;;;18.02;10.00;;;13.30;99.90;;;;;;5052963;28;19913;-49
2022/10/30 01:44:11;;;;;;;21.90;9.82;;;13.30;99.90;;;;;;5052675;28;20029;-52
2022/10/30 01:46:57;;;;;;;16.42;9.95;;;13.30;99.90;;;;;;5053169;28;20044;-52
2022/10/30 01:49:43;;;;;;;16.55;10.15;;;13.30;99.90;;;;;;5031373;28;20041;-48
2022/10/30 01:52:38;;;;;;;22.45;10.65;;;13.30;99.90;;;;;;5053298;28;20063;-52
2022/10/30 01:55:17;;;;;;;33.03;14.33;;;13.30;99.90;;;;;;5045600;28;20033;-50
2022/10/30 01:58:20;;;;;;;81.57;19.17;;;13.30;99.90;;;;;;5050851;28;20264;-53
2022/10/30 02:00:56;;;;;;;50.08;19.90;;;13.40;99.90;;;;;;5026720;28;20037;-49
2022/10/30 02:03:23;;;;;;;40.13;15.18;;;13.30;99.90;;;;;;5051216;28;20090;-50
2022/10/30 02:05:51;;;;;;;22.38;11.45;;;13.30;99.90;;;;;;5053154;28;20510;-51
2022/10/30 02:08:17;;;;;;;21.52;10.52;;;13.40;99.90;;;;;;5052359;28;20103;-49
2022/10/30 02:10:46;;;;;;;16.58;10.43;;;13.60;99.90;;;;;;5052639;28;20033;-50
2022/10/30 02:13:11;;;;;;;20.15;9.68;;;13.30;99.90;;;;;;5052242;28;20052;-50
2022/10/30 02:15:37;;;;;;;26.15;11.57;;;13.20;99.90;;;;;;5052559;28;20079;-50
2022/10/30 02:18:03;;;;;;;34.97;11.60;;;13.20;99.90;;;;;;5051081;28;20477;-51
2022/10/30 02:20:29;;;;;;;16.77;9.52;;;13.10;99.90;;;;;;5051044;28;20025;-49
2022/10/30 02:22:55;;;;;;;14.27;9.10;;;13.10;99.90;;;;;;5052058;28;20100;-50
2022/10/30 02:25:21;;;;;;;20.83;9.55;;;13.00;99.90;;;;;;5052336;28;20059;-47
2022/10/30 02:27:46;;;;;;;23.85;9.75;;;12.90;99.90;;;;;;5052323;28;20083;-50
2022/10/30 02:30:12;;;;;;;16.05;9.55;;;13.00;99.90;;;;;;5052120;28;20037;-52
2022/10/30 02:32:38;;;;;;;20.35;10.35;;;12.90;99.90;;;;;;5051940;28;20106;-50
2022/10/30 02:35:04;;;;;;;21.50;9.73;;;12.90;99.90;;;;;;5052032;28;20066;-52
2022/10/30 02:37:31;;;;;;;18.02;10.13;;;12.80;99.90;;;;;;5052063;28;20021;-50
2022/10/30 02:39:57;;;;;;;20.38;9.45;;;12.80;99.90;;;;;;5052111;28;20037;-54
2022/10/30 02:42:22;;;;;;;15.65;9.30;;;12.80;99.90;;;;;;5050374;28;20549;-55
2022/10/30 02:44:48;;;;;;;11.98;8.50;;;12.80;99.90;;;;;;5049991;28;20062;-49
2022/10/30 02:47:14;;;;;;;24.38;8.95;;;12.90;99.90;;;;;;5051940;28;20047;-50
2022/10/30 02:49:39;;;;;;;17.65;9.02;;;12.90;99.90;;;;;;5051824;28;20434;-52
2022/10/30 02:52:07;;;;;;;17.70;8.70;;;12.90;99.90;;;;;;5050138;28;20033;-49
2022/10/30 02:54:33;;;;;;;12.77;7.65;;;12.90;99.90;;;;;;5051784;28;20481;-49
2022/10/30 02:56:59;;;;;;;17.77;9.18;;;12.90;99.90;;;;;;5051864;28;20025;-55
2022/10/30 02:59:24;;;;;;;15.57;8.00;;;12.90;99.90;;;;;;5051772;28;20028;-50
2022/10/30 03:01:50;;;;;;;20.02;8.95;;;12.90;99.90;;;;;;5050990;28;20409;-49
2022/10/30 03:04:15;;;;;;;17.55;9.52;;;12.90;99.90;;;;;;5050176;28;20028;-48
2022/10/30 03:06:41;;;;;;;18.10;9.38;;;12.90;99.90;;;;;;5051742;28;20021;-53
2022/10/30 03:09:06;;;;;;;13.95;8.45;;;12.90;99.90;;;;;;5051442;28;20028;-52
2022/10/30 03:11:33;;;;;;;15.52;8.93;;;13.00;99.90;;;;;;5051390;28;20040;-52
2022/10/30 03:13:58;;;;;;;13.35;8.50;;;13.00;99.90;;;;;;5051465;28;20021;-53
2022/10/30 03:16:25;;;;;;;18.73;8.45;;;13.00;99.90;;;;;;5050193;28;20028;-52
2022/10/30 03:18:51;;;;;;;17.98;8.75;;;13.00;99.90;;;;;;5051667;28;20096;-52
2022/10/30 03:21:21;;;;;;;14.35;9.48;;;13.00;99.90;;;;;;5051986;28;20116;-51
2022/10/30 03:23:49;;;;;;;16.73;8.65;;;13.10;99.90;;;;;;5051041;28;20033;-53
2022/10/30 03:26:15;;;;;;;16.23;8.60;;;13.10;99.90;;;;;;5051551;28;20588;-49
2022/10/30 03:28:40;;;;;;;19.15;9.30;;;13.10;99.90;;;;;;5051237;28;20029;-51
2022/10/30 03:31:08;;;;;;;16.00;8.82;;;13.10;99.90;;;;;;5051268;28;20037;-50
2022/10/30 03:33:35;;;;;;;16.38;9.23;;;13.10;99.90;;;;;;5051044;28;20127;-51
2022/10/30 03:36:01;;;;;;;15.45;9.73;;;13.10;99.90;;;;;;5051335;28;20040;-53
2022/10/30 03:38:27;;;;;;;17.70;9.43;;;13.10;99.90;;;;;;5051178;28;20520;-52
2022/10/30 03:40:53;;;;;;;17.85;8.93;;;13.00;99.90;;;;;;5051253;28;20028;-54
2022/10/30 03:43:19;;;;;;;13.27;9.70;;;13.00;99.90;;;;;;5049588;28;20046;-50
2022/10/30 03:45:49;;;;;;;36.05;10.55;;;13.00;99.90;;;;;;5051302;28;20044;-50
2022/10/30 03:48:16;;;;;;;18.95;9.00;;;13.00;99.90;;;;;;5049898;28;20115;-52
2022/10/30 03:50:41;;;;;;;15.38;9.85;;;13.20;99.90;;;;;;5051173;28;20029;-49
2022/10/30 03:53:07;;;;;;;25.23;10.32;;;13.40;99.90;;;;;;5051909;28;20120;-49
2022/10/30 03:55:33;;;;;;;18.45;9.30;;;13.40;99.90;;;;;;5053424;28;20115;-51
2022/10/30 03:57:58;;;;;;;18.35;9.65;;;13.40;99.90;;;;;;5055199;28;20025;-53
2022/10/30 04:00:24;;;;;;;20.15;9.07;;;13.30;99.90;;;;;;5054634;28;20029;-50
2022/10/30 04:02:51;;;;;;;27.17;9.52;;;13.20;99.90;;;;;;5054877;28;20052;-52
2022/10/30 04:05:19;;;;;;;17.45;8.77;;;13.20;99.90;;;;;;5055170;28;20080;-50
2022/10/30 04:07:46;;;;;;;14.85;8.43;;;13.10;99.90;;;;;;5055165;28;20017;-49
2022/10/30 04:10:12;;;;;;;22.27;10.00;;;13.10;99.90;;;;;;5053489;28;20061;-52
2022/10/30 04:12:38;;;;;;;23.30;10.10;;;13.10;99.90;;;;;;5054835;28;20113;-51
2022/10/30 04:15:06;;;;;;;19.75;9.52;;;13.10;99.90;;;;;;5054910;28;20430;-53
2022/10/30 04:17:31;;;;;;;22.52;9.20;;;13.10;99.90;;;;;;5054952;28;20032;-55
2022/10/30 04:19:57;;;;;;;18.70;8.77;;;13.00;99.90;;;;;;5055024;28;20032;-50
2022/10/30 04:22:23;;;;;;;17.67;8.20;;;12.90;99.90;;;;;;5054572;28;20480;-54
2022/10/30 04:24:49;;;;;;;21.00;8.60;;;12.90;99.90;;;;;;5054887;28;20064;-51
2022/10/30 04:27:15;;;;;;;16.88;7.53;;;12.80;99.90;;;;;;5054915;28;20075;-50
2022/10/30 04:29:43;;;;;;;10.27;6.75;;;12.80;99.90;;;;;;5054929;28;20075;-49
2022/10/30 04:32:09;;;;;;;18.35;9.38;;;12.80;99.90;;;;;;5054292;28;20443;-50
2022/10/30 04:34:35;;;;;;;17.50;9.25;;;12.80;99.90;;;;;;5055116;28;20025;-50
2022/10/30 04:37:00;;;;;;;11.77;8.07;;;12.80;99.90;;;;;;5054479;28;20397;-51
2022/10/30 04:39:26;;;;;;;13.00;8.50;;;12.80;99.90;;;;;;5053349;28;20017;-50
2022/10/30 04:41:51;;;;;;;12.15;7.60;;;12.80;99.90;;;;;;5054254;28;20500;-49
2022/10/30 04:44:17;;;;;;;14.63;8.13;;;12.70;99.90;;;;;;5053217;28;20021;-52
2022/10/30 04:46:42;;;;;;;13.05;8.10;;;12.70;99.90;;;;;;5054323;28;20024;-54
2022/10/30 04:49:08;;;;;;;17.27;8.20;;;12.70;99.90;;;;;;5054236;28;20032;-55
2022/10/30 04:51:34;;;;;;;12.52;8.68;;;12.70;99.90;;;;;;5053930;28;20021;-55
2022/10/30 04:53:59;;;;;;;19.50;8.75;;;12.70;99.90;;;;;;5054018;28;20025;-54
2022/10/30 04:56:25;;;;;;;15.50;8.50;;;12.70;99.90;;;;;;5054126;28;20037;-53
2022/10/30 04:58:51;;;;;;;13.95;7.95;;;12.70;99.90;;;;;;5054096;28;20025;-49
2022/10/30 05:01:17;;;;;;;12.07;8.02;;;12.60;99.90;;;;;;5053765;28;20033;-52
2022/10/30 05:03:42;;;;;;;21.80;7.38;;;12.50;99.90;;;;;;5053652;28;20032;-50
2022/10/30 05:06:22;;;;;;;15.25;9.05;;;12.50;99.90;;;;;;5051848;28;20481;-55
2022/10/30 05:08:48;;;;;;;14.27;8.25;;;12.40;99.90;;;;;;5053999;28;20572;-53
2022/10/30 05:11:14;;;;;;;12.40;8.00;;;12.40;99.90;;;;;;5054666;28;20033;-55
2022/10/30 05:13:40;;;;;;;16.33;8.80;;;12.40;99.90;;;;;;5053817;28;20399;-52
2022/10/30 05:16:05;;;;;;;20.00;7.68;;;12.30;99.90;;;;;;5053647;28;20393;-50
2022/10/30 05:18:31;;;;;;;10.30;7.55;;;12.30;99.90;;;;;;5053557;28;20059;-55
2022/10/30 05:20:56;;;;;;;12.55;7.65;;;12.30;99.90;;;;;;5053565;28;20056;-52
2022/10/30 05:23:22;;;;;;;14.77;7.50;;;12.30;99.90;;;;;;5053439;28;20029;-54
2022/10/30 05:25:47;;;;;;;15.55;7.88;;;12.30;99.90;;;;;;5053534;28;20029;-50
2022/10/30 05:28:13;;;;;;;15.88;8.63;;;12.30;99.90;;;;;;5053277;28;20055;-52
2022/10/30 05:30:39;;;;;;;16.45;6.35;;;12.30;99.90;;;;;;5053394;28;20032;-51
2022/10/30 05:33:06;;;;;;;18.27;8.27;;;12.20;99.90;;;;;;5053096;28;20025;-50
2022/10/30 05:35:33;;;;;;;19.58;9.15;;;12.20;99.90;;;;;;5052125;28;20025;-53
2022/10/30 05:38:00;;;;;;;11.38;6.82;;;12.20;99.90;;;;;;5053822;28;20536;-53
2022/10/30 05:40:26;;;;;;;13.52;7.28;;;12.10;99.90;;;;;;5055197;28;20485;-51
2022/10/30 05:42:52;;;;;;;17.17;7.68;;;12.00;99.90;;;;;;5054138;28;20037;-53
2022/10/30 05:45:18;;;;;;;9.77;6.75;;;12.00;99.90;;;;;;5053344;28;20505;-52
2022/10/30 05:47:52;;;;;;;16.15;8.18;;;12.00;99.90;;;;;;5051905;28;20056;-49
2022/10/30 05:50:18;;;;;;;18.90;8.45;;;12.00;99.90;;;;;;5053295;28;20043;-55
2022/10/30 05:52:43;;;;;;;12.77;8.18;;;12.00;99.90;;;;;;5052650;28;20044;-52
2022/10/30 05:55:09;;;;;;;23.17;8.63;;;11.90;99.90;;;;;;5051918;28;20067;-53
2022/10/30 05:57:34;;;;;;;17.67;11.07;;;11.90;99.90;;;;;;5053133;28;20048;-57
2022/10/30 06:00:00;;;;;;;12.15;8.88;;;11.80;99.90;;;;;;5052770;28;20053;-52
2022/10/30 06:02:25;;;;;;;13.63;8.73;;;11.80;99.90;;;;;;5051239;28;20021;-56
2022/10/30 06:04:51;;;;;;;10.60;7.38;;;11.70;99.90;;;;;;5052959;28;20439;-52
2022/10/30 06:07:16;;;;;;;10.40;7.25;;;11.70;99.90;;;;;;5052852;28;20032;-51
2022/10/30 06:09:42;;;;;;;13.85;7.22;;;11.70;99.90;;;;;;5052673;28;20029;-52
2022/10/30 06:12:07;;;;;;;14.05;7.60;;;11.70;99.90;;;;;;5052262;28;20021;-52
2022/10/30 06:14:33;;;;;;;11.20;7.05;;;11.70;99.90;;;;;;5051435;28;20036;-53
2022/10/30 06:16:58;;;;;;;10.38;7.60;;;11.70;99.90;;;;;;5052658;28;20029;-52
2022/10/30 06:19:24;;;;;;;14.90;7.70;;;11.80;99.90;;;;;;5051166;28;20120;-53
2022/10/30 06:21:49;;;;;;;14.15;7.95;;;11.80;99.90;;;;;;5052341;28;20028;-52
2022/10/30 06:24:15;;;;;;;13.95;7.35;;;11.70;99.90;;;;;;5052725;28;20542;-51
2022/10/30 06:26:40;;;;;;;13.30;7.53;;;11.70;99.90;;;;;;5051121;28;20032;-50
2022/10/30 06:29:06;;;;;;;16.00;7.80;;;11.70;99.90;;;;;;5052493;28;20017;-53
2022/10/30 06:31:31;;;;;;;12.60;7.72;;;11.70;99.90;;;;;;5052610;28;20387;-53
2022/10/30 06:33:57;;;;;;;12.25;8.43;;;11.70;99.90;;;;;;5052962;28;20029;-50
2022/10/30 06:36:23;;;;;;;18.10;7.47;;;11.70;99.90;;;;;;5053070;28;20021;-57
2022/10/30 06:38:48;;;;;;;14.48;8.55;;;11.70;99.90;;;;;;5052749;28;20029;-55
2022/10/30 06:41:14;;;;;;;12.75;7.50;;;11.70;99.90;;;;;;5052729;28;20108;-52
2022/10/30 06:43:39;;;;;;;11.98;8.80;;;11.70;99.90;;;;;;5050482;28;20028;-51
2022/10/30 06:46:05;;;;;;;19.20;9.63;;;11.80;99.90;;;;;;5052039;28;20052;-54
2022/10/30 06:48:30;;;;;;;13.23;8.18;;;11.80;99.90;;;;;;5052045;28;20029;-50
2022/10/30 06:50:58;;;;;;;15.80;9.07;;;11.90;99.90;;;;;;5052462;28;20127;-50
2022/10/30 06:53:23;;;;;;;14.45;9.05;;;11.90;99.90;;;;;;5050515;28;20033;-52
2022/10/30 06:56:01;;;;;;;33.72;13.45;;;12.00;99.90;;;;;;5050659;28;20032;-53
2022/10/30 06:58:27;;;;;;;26.63;12.23;;;12.20;99.90;;;;;;5051616;28;20389;-52
2022/10/30 07:00:53;;;;;;;15.85;10.30;;;12.10;99.90;;;;;;5053028;28;20020;-51
2022/10/30 07:03:18;;;;;;;16.20;10.30;;;12.20;99.90;;;;;;5053047;28;20017;-51
2022/10/30 07:05:44;;;;;;;19.52;11.70;;;12.20;99.90;;;;;;5051852;28;20519;-55
2022/10/30 07:08:10;;;;;;;31.85;11.65;;;12.20;99.90;;;;;;5051164;28;20029;-48
2022/10/30 07:10:35;;;;;;;14.43;10.27;;;12.30;99.90;;;;;;5051403;28;20288;-51
2022/10/30 07:13:01;;;;;;;18.42;10.55;;;12.30;99.90;;;;;;5048865;28;20027;-52
2022/10/30 07:15:27;;;;;;;18.58;10.18;;;12.40;99.90;;;;;;5050110;28;20400;-52
2022/10/30 07:17:54;;;;;;;13.10;8.02;;;12.40;99.90;;;;;;5049811;28;20106;-49
2022/10/30 07:20:20;;;;;;;15.30;8.57;;;12.50;99.90;;;;;;5051277;28;20029;-51
2022/10/30 07:22:46;;;;;;;19.02;9.07;;;12.60;99.90;;;;;;5049416;28;20029;-50
2022/10/30 07:25:11;;;;;;;19.27;8.55;;;12.60;99.90;;;;;;5051719;28;20025;-49
2022/10/30 07:27:44;;;;;;;12.90;7.68;;;12.70;99.90;;;;;;5051662;28;20028;-50
2022/10/30 07:30:14;;;;;;;19.65;8.07;;;12.80;99.90;;;;;;5051152;28;20032;-50
2022/10/30 07:32:40;;;;;;;12.93;7.88;;;12.90;99.90;;;;;;5050930;28;20025;-50
2022/10/30 07:35:06;;;;;;;14.23;6.97;;;12.90;99.90;;;;;;5051519;28;20373;-47
2022/10/30 07:37:32;;;;;;;21.35;7.97;;;13.10;99.90;;;;;;5051490;28;20071;-51
2022/10/30 07:39:58;;;;;;;20.10;9.35;;;13.10;99.90;;;;;;5051432;28;20397;-51
2022/10/30 07:42:23;;;;;;;15.18;9.10;;;13.20;99.90;;;;;;5051261;28;20035;-54
2022/10/30 07:44:49;;;;;;;17.85;9.27;;;13.30;99.90;;;;;;5051473;28;20423;-48
2022/10/30 07:47:14;;;;;;;15.88;8.65;;;13.40;99.90;;;;;;5047582;28;20025;-47
2022/10/30 07:49:40;;;;;;;14.23;8.40;;;13.40;99.90;;;;;;5050988;28;20504;-51
2022/10/30 07:52:06;;;;;;;15.50;8.10;;;13.50;99.90;;;;;;5050991;28;20129;-56
2022/10/30 07:54:31;;;;;;;16.50;7.88;;;13.60;99.90;;;;;;5051053;28;20025;-58
2022/10/30 07:56:57;;;;;;;18.60;8.75;;;13.70;99.90;;;;;;5049427;28;20048;-53
2022/10/30 07:59:23;;;;;;;16.00;7.82;;;13.70;99.90;;;;;;5051321;28;20021;-48
2022/10/30 08:01:49;;;;;;;17.38;7.57;;;13.70;99.90;;;;;;5050833;28;20385;-49
2022/10/30 08:04:14;;;;;;;10.63;7.25;;;13.80;99.90;;;;;;5050795;28;20024;-52
2022/10/30 08:06:40;;;;;;;18.10;8.30;;;13.80;99.90;;;;;;5051099;28;20021;-47
2022/10/30 08:09:05;;;;;;;12.00;8.30;;;13.80;99.90;;;;;;5050618;28;20021;-46
2022/10/30 08:11:31;;;;;;;12.57;8.27;;;13.80;99.90;;;;;;5050317;28;20033;-50
2022/10/30 08:13:57;;;;;;;12.02;8.20;;;13.90;99.90;;;;;;5050895;28;20029;-51
2022/10/30 08:16:23;;;;;;;15.70;8.25;;;13.90;99.90;;;;;;5049792;28;20120;-46
2022/10/30 08:18:48;;;;;;;14.57;7.40;;;13.90;99.90;;;;;;5050478;28;20032;-49
2022/10/30 08:21:14;;;;;;;15.73;8.90;;;14.00;99.90;;;;;;5049457;28;20025;-47
2022/10/30 08:23:39;;;;;;;11.18;8.60;;;14.00;99.90;;;;;;5050180;28;20035;-51
2022/10/30 08:26:05;;;;;;;13.45;8.50;;;14.10;99.90;;;;;;5051149;28;20043;-47
2022/10/30 08:28:31;;;;;;;14.02;8.30;;;14.10;99.90;;;;;;5052104;28;20021;-44
2022/10/30 08:30:58;;;;;;;14.00;8.25;;;14.20;99.90;;;;;;5052184;28;20017;-47
2022/10/30 08:33:24;;;;;;;15.48;9.25;;;14.30;99.90;;;;;;5051643;28;20021;-46
2022/10/30 08:35:50;;;;;;;17.30;8.38;;;14.40;99.90;;;;;;5051471;28;20020;-47
2022/10/30 08:38:17;;;;;;;18.65;9.00;;;14.40;99.90;;;;;;5050700;28;20468;-53
2022/10/30 08:40:42;;;;;;;15.13;8.18;;;14.50;99.90;;;;;;5050827;28;20029;-49
2022/10/30 08:43:08;;;;;;;13.95;8.88;;;14.60;99.90;;;;;;5053367;28;20421;-47
2022/10/30 08:45:34;;;;;;;17.10;8.88;;;14.60;99.90;;;;;;5054373;28;20033;-47
2022/10/30 08:48:02;;;;;;;14.60;8.05;;;14.70;99.90;;;;;;5054035;28;20378;-47
2022/10/30 08:50:28;;;;;;;14.65;10.85;;;14.80;99.90;;;;;;5054254;28;20573;-47
2022/10/30 08:52:53;;;;;;;13.98;8.32;;;15.00;99.90;;;;;;5052320;28;20116;-49
2022/10/30 08:55:19;;;;;;;26.27;8.23;;;15.60;99.90;;;;;;5054248;28;20107;-47
2022/10/30 08:57:45;;;;;;;18.75;6.95;;;16.70;99.90;;;;;;5054130;28;20039;-48
2022/10/30 09:00:11;;;;;;;13.70;7.10;;;17.80;99.90;;;;;;5052872;28;20470;-48
2022/10/30 09:02:39;;;;;;;14.55;6.47;;;18.90;99.90;;;;;;5053504;28;20029;-49
2022/10/30 09:05:07;;;;;;;14.25;6.97;;;19.70;99.90;;;;;;5054095;28;20112;-48
2022/10/30 09:07:33;;;;;;;12.57;6.72;;;20.50;99.90;;;;;;5053886;28;20025;-46
2022/10/30 09:09:59;;;;;;;12.48;6.55;;;21.20;99.90;;;;;;5054206;28;20044;-53
2022/10/30 09:12:25;;;;;;;15.50;6.82;;;21.70;99.90;;;;;;5053348;28;20402;-50
2022/10/30 09:14:50;;;;;;;14.07;6.20;;;22.40;99.90;;;;;;5053761;28;20018;-51
2022/10/30 09:17:16;;;;;;;12.02;6.88;;;22.90;99.90;;;;;;5053692;28;20044;-48
2022/10/30 09:19:41;;;;;;;20.08;6.55;;;23.40;99.90;;;;;;5053695;28;20396;-49
2022/10/30 09:22:07;;;;;;;15.20;5.97;;;23.70;99.90;;;;;;5052746;28;20037;-61
2022/10/30 09:24:32;;;;;;;15.88;7.18;;;24.30;99.90;;;;;;5053482;28;20057;-50
2022/10/30 09:26:58;;;;;;;14.48;6.63;;;24.60;99.90;;;;;;5053295;28;20488;-49
2022/10/30 09:29:23;;;;;;;12.02;7.00;;;24.90;99.90;;;;;;5052949;28;20078;-51
2022/10/30 09:31:49;;;;;;;12.15;7.15;;;25.00;99.90;;;;;;5051560;28;20029;-48
2022/10/30 09:34:14;;;;;;;14.43;6.43;;;25.00;99.90;;;;;;5052584;28;20508;-47
2022/10/30 09:36:42;;;;;;;17.35;6.85;;;25.20;99.90;;;;;;5051923;28;20052;-49
2022/10/30 09:39:08;;;;;;;14.10;6.20;;;25.10;99.90;;;;;;5046836;28;20033;-47
2022/10/30 09:41:52;;;;;;;14.57;7.00;;;25.20;99.90;;;;;;5065439;28;20028;-48
2022/10/30 09:44:30;;;;;;;14.80;6.90;;;24.80;99.90;;;;;;5073156;28;20031;-49
2022/10/30 09:47:05;;;;;;;12.68;7.75;;;24.40;99.90;;;;;;5073493;28;20028;-51
2022/10/30 09:49:49;;;;;;;13.90;5.93;;;24.30;99.90;;;;;;5068265;28;20100;-50
2022/10/30 09:52:55;;;;;;;22.98;6.97;;;24.00;99.90;;;;;;5052490;28;20033;-61
2022/10/30 09:55:37;;;;;;;12.50;6.70;;;24.00;99.90;;;;;;5092146;23;20068;-49
2022/10/30 09:58:24;;;;;;;15.00;6.22;;;24.30;99.90;;;;;;5073004;28;20021;-49
2022/10/30 10:01:07;;;;;;;10.15;6.55;;;24.40;99.90;;;;;;5071852;28;20442;-50
2022/10/30 10:03:59;;;;;;;11.23;6.47;;;24.80;99.90;;;;;;5075075;28;20032;-52
2022/10/30 10:06:26;;;;;;;12.93;6.90;;;24.80;99.90;;;;;;5093293;28;20054;-52
2022/10/30 10:09:02;;;;;;;12.60;7.85;;;24.50;99.90;;;;;;5093392;28;20028;-48
2022/10/30 10:11:34;;;;;;;22.83;9.48;;;24.20;99.90;;;;;;5093371;28;20031;-48
2022/10/30 10:14:19;;;;;;;12.82;7.95;;;23.90;99.90;;;;;;5093145;28;20107;-49
2022/10/30 10:16:50;;;;;;;11.77;7.25;;;23.50;99.90;;;;;;5095218;28;20039;-51
2022/10/30 10:19:32;;;;;;;15.93;8.55;;;22.90;99.90;;;;;;5094239;28;20027;-49
2022/10/30 10:22:00;;;;;;;14.52;7.97;;;22.60;99.90;;;;;;5093981;28;20038;-51
2022/10/30 10:24:32;;;;;;;13.63;8.30;;;22.30;99.90;;;;;;5093078;28;20032;-48
2022/10/30 10:27:06;;;;;;;15.00;8.23;;;22.10;99.90;;;;;;5091439;28;20021;-50
2022/10/30 10:29:38;;;;;;;14.23;7.68;;;22.00;99.90;;;;;;5093013;28;20030;-45
2022/10/30 10:32:16;;;;;;;18.45;8.88;;;21.70;99.90;;;;;;5092976;28;20023;-53
2022/10/30 10:34:45;;;;;;;46.35;32.92;;;21.50;99.90;;;;;;5092675;28;20019;-51
2022/10/30 10:37:26;;;;;;;60.20;40.03;;;21.40;99.90;;;;;;5092934;28;20017;-50
2022/10/30 10:40:19;;;;;;;61.85;33.05;;;21.40;99.90;;;;;;5092636;28;20463;-50
2022/10/30 10:43:14;;;;;;;19.52;10.88;;;21.30;99.90;;;;;;5092179;28;20112;-51
2022/10/30 10:45:58;;;;;;;12.07;8.45;;;21.20;99.90;;;;;;5092385;28;20028;-51
2022/10/30 10:48:49;;;;;;;13.35;8.70;;;21.10;99.90;;;;;;5092356;28;20464;-53
2022/10/30 10:51:23;;;;;;;13.70;8.30;;;20.80;99.90;;;;;;5092445;28;20059;-52
2022/10/30 10:53:58;;;;;;;19.65;9.15;;;20.60;99.90;;;;;;5092111;28;20035;-47
2022/10/30 10:56:28;;;;;;;;;;;20.40;99.90;;;;;;5093073;28;20031;-51
2022/10/30 10:58:58;;;;;;;15.00;8.68;;;20.20;99.90;;;;;;5092502;28;19911;-48
2022/10/30 11:01:39;;;;;;;13.38;8.90;;;20.10;99.90;;;;;;5092713;28;20028;-49
2022/10/30 11:04:13;;;;;;;16.15;8.15;;;20.00;99.90;;;;;;5091499;28;20064;-48
2022/10/30 11:06:42;;;;;;;19.55;8.20;;;20.00;99.90;;;;;;5092223;28;20028;-49
2022/10/30 11:09:20;;;;;;;14.95;9.18;;;20.00;99.90;;;;;;5092222;28;20036;-50
2022/10/30 11:11:50;;;;;;;13.10;7.32;;;19.90;99.90;;;;;;5092139;28;20264;-47
2022/10/30 11:14:19;;;;;;;15.07;8.60;;;19.90;99.90;;;;;;5092111;28;20024;-52
2022/10/30 11:16:47;;;;;;;10.38;7.60;;;20.00;99.90;;;;;;5092432;28;20047;-50
2022/10/30 11:19:13;;;;;;;15.50;8.93;;;19.90;99.90;;;;;;5091848;28;20027;-48
2022/10/30 11:21:43;;;;;;;13.85;8.48;;;19.90;99.90;;;;;;5091730;28;20035;-53
2022/10/30 11:24:25;;;;;;;14.43;8.93;;;19.70;99.90;;;;;;5089081;28;20035;-50
2022/10/30 11:26:51;;;;;;;14.90;9.77;;;19.70;99.90;;;;;;5070139;28;20050;-47
2022/10/30 11:29:23;;;;;;;20.05;9.70;;;19.70;99.90;;;;;;5070145;28;20021;-52
2022/10/30 11:32:02;;;;;;;16.10;9.32;;;19.60;99.90;;;;;;5071111;28;20070;-49
2022/10/30 11:34:32;;;;;;;19.50;10.52;;;19.60;99.90;;;;;;5071882;28;20028;-51
2022/10/30 11:36:57;;;;;;;14.55;7.97;;;19.50;99.90;;;;;;5088993;28;20549;-48
2022/10/30 11:39:28;;;;;;;14.73;9.35;;;19.50;99.90;;;;;;5092308;28;20059;-50
2022/10/30 11:42:05;;;;;;;15.75;8.70;;;19.50;99.90;;;;;;5091620;28;20050;-51
2022/10/30 11:44:30;;;;;;;22.10;9.73;;;19.50;99.90;;;;;;5092347;28;20395;-50
2022/10/30 11:46:56;;;;;;;13.07;8.98;;;19.40;99.90;;;;;;5091759;28;20020;-51
2022/10/30 11:49:29;;;;;;;16.85;10.40;;;19.30;99.90;;;;;;5090680;28;20082;-51
2022/10/30 11:51:58;;;;;;;16.38;8.63;;;19.30;99.90;;;;;;5091471;28;20028;-50
2022/10/30 11:54:25;;;;;;;16.27;9.90;;;19.30;99.90;;;;;;5091176;28;20032;-53
2022/10/30 11:56:53;;;;;;;17.67;9.57;;;19.30;99.90;;;;;;5091416;28;20026;-52
2022/10/30 11:59:21;;;;;;;17.42;8.85;;;19.40;99.90;;;;;;5091926;28;20016;-53
2022/10/30 12:01:58;;;;;;;18.30;9.18;;;19.30;99.90;;;;;;5091205;28;20036;-44
2022/10/30 12:04:26;;;;;;;14.45;8.65;;;19.40;99.90;;;;;;5075108;28;20055;-51
2022/10/30 12:07:23;;;;;;;16.65;8.38;;;19.50;99.90;;;;;;5091313;28;20093;-47
2022/10/30 12:09:49;;;;;;;32.38;17.70;;;19.50;99.90;;;;;;5091286;28;20032;-55
2022/10/30 12:12:37;;;;;;;15.07;9.80;;;19.60;99.90;;;;;;5089843;28;20476;-50
2022/10/30 12:15:11;;;;;;;26.52;14.05;;;19.60;99.90;;;;;;5091476;28;20367;-48
2022/10/30 12:17:38;;;;;;;12.32;7.50;;;19.60;99.90;;;;;;5094928;28;20480;-51
2022/10/30 12:20:06;;;;;;;15.27;7.38;;;19.60;99.90;;;;;;5095049;28;20032;-48
2022/10/30 12:22:34;;;;;;;20.00;8.18;;;19.70;99.90;;;;;;5093297;28;20034;-50
2022/10/30 12:25:03;;;;;;;12.18;6.85;;;19.70;99.90;;;;;;5094494;28;20028;-54
2022/10/30 12:27:33;;;;;;;18.33;7.45;;;19.70;99.90;;;;;;5094869;28;20047;-48
2022/10/30 12:30:01;;;;;;;14.75;6.88;;;19.80;99.90;;;;;;5094813;28;20492;-52
2022/10/30 12:32:41;;;;;;;22.80;7.60;;;19.80;99.90;;;;;;5095088;28;20039;-50
2022/10/30 12:35:35;;;;;;;18.63;6.53;;;19.90;99.90;;;;;;5073654;28;20020;-48
2022/10/30 12:38:04;;;;;;;17.00;7.68;;;20.00;99.90;;;;;;5075599;28;20020;-51
2022/10/30 12:40:33;;;;;;;10.32;6.22;;;20.00;99.90;;;;;;5094804;28;20020;-57
2022/10/30 12:43:15;;;;;;;16.77;8.55;;;20.00;99.90;;;;;;5093485;28;20034;-50
2022/10/30 12:45:46;;;;;;;28.65;7.88;;;20.10;99.90;;;;;;5094619;28;20103;-50